sensor_id;sensor_type;location;lat;lon;timestamp;P1;durP1;ratioP1;P2;durP2;ratioP2
13485;SDS011;6815;59.336;17.998;2024-03-06T00:02:18;5.70;;;3.43;;
13485;SDS011;6815;59.336;17.998;2024-03-06T00:04:43;4.93;;;3.50;;
13485;SDS011;6815;59.336;17.998;2024-03-06T00:07:09;5.20;;;3.20;;
13485;SDS011;6815;59.336;17.998;2024-03-06T00:09:34;6.63;;;3.20;;
13485;SDS011;6815;59.336;17.998;2024-03-06T00:12:00;6.73;;;3.90;;
13485;SDS011;6815;59.336;17.998;2024-03-06T00:14:25;7.27;;;3.77;;
13485;SDS011;6815;59.336;17.998;2024-03-06T00:16:51;5.23;;;2.70;;
13485;SDS011;6815;59.336;17.998;2024-03-06T00:19:19;6.33;;;3.57;;
13485;SDS011;6815;59.336;17.998;2024-03-06T00:21:45;6.87;;;3.27;;
13485;SDS011;6815;59.336;17.998;2024-03-06T00:24:13;4.70;;;2.80;;
13485;SDS011;6815;59.336;17.998;2024-03-06T00:26:43;5.07;;;2.90;;
13485;SDS011;6815;59.336;17.998;2024-03-06T00:29:10;5.00;;;3.00;;
13485;SDS011;6815;59.336;17.998;2024-03-06T00:31:35;5.17;;;2.63;;
13485;SDS011;6815;59.336;17.998;2024-03-06T00:34:02;7.60;;;2.90;;
13485;SDS011;6815;59.336;17.998;2024-03-06T00:36:27;7.77;;;3.23;;
13485;SDS011;6815;59.336;17.998;2024-03-06T00:38:52;4.67;;;2.60;;
13485;SDS011;6815;59.336;17.998;2024-03-06T00:41:18;4.97;;;3.03;;
13485;SDS011;6815;59.336;17.998;2024-03-06T00:43:44;3.53;;;2.30;;
13485;SDS011;6815;59.336;17.998;2024-03-06T00:46:10;4.87;;;2.37;;
13485;SDS011;6815;59.336;17.998;2024-03-06T00:48:36;4.63;;;2.60;;
13485;SDS011;6815;59.336;17.998;2024-03-06T00:51:01;4.83;;;2.63;;
13485;SDS011;6815;59.336;17.998;2024-03-06T00:53:27;5.10;;;2.40;;
13485;SDS011;6815;59.336;17.998;2024-03-06T00:55:52;5.57;;;2.43;;
13485;SDS011;6815;59.336;17.998;2024-03-06T00:58:18;5.53;;;2.83;;
13485;SDS011;6815;59.336;17.998;2024-03-06T01:00:43;5.37;;;2.50;;
13485;SDS011;6815;59.336;17.998;2024-03-06T01:03:09;5.80;;;2.97;;
13485;SDS011;6815;59.336;17.998;2024-03-06T01:05:34;4.93;;;2.60;;
13485;SDS011;6815;59.336;17.998;2024-03-06T01:07:59;4.87;;;2.40;;
13485;SDS011;6815;59.336;17.998;2024-03-06T01:10:25;5.77;;;2.27;;
13485;SDS011;6815;59.336;17.998;2024-03-06T01:12:50;3.63;;;2.20;;
13485;SDS011;6815;59.336;17.998;2024-03-06T01:15:16;5.43;;;2.67;;
13485;SDS011;6815;59.336;17.998;2024-03-06T01:17:41;5.27;;;2.40;;
13485;SDS011;6815;59.336;17.998;2024-03-06T01:20:07;5.17;;;2.63;;
13485;SDS011;6815;59.336;17.998;2024-03-06T01:22:33;6.17;;;2.50;;
13485;SDS011;6815;59.336;17.998;2024-03-06T01:24:59;5.33;;;2.53;;
13485;SDS011;6815;59.336;17.998;2024-03-06T01:27:25;6.07;;;2.50;;
13485;SDS011;6815;59.336;17.998;2024-03-06T01:29:51;4.40;;;2.40;;
13485;SDS011;6815;59.336;17.998;2024-03-06T01:32:16;4.87;;;2.30;;
13485;SDS011;6815;59.336;17.998;2024-03-06T01:34:42;7.83;;;3.73;;
13485;SDS011;6815;59.336;17.998;2024-03-06T01:37:07;5.50;;;2.70;;
13485;SDS011;6815;59.336;17.998;2024-03-06T01:39:33;5.23;;;2.50;;
13485;SDS011;6815;59.336;17.998;2024-03-06T01:42:00;4.57;;;2.03;;
13485;SDS011;6815;59.336;17.998;2024-03-06T01:44:26;3.90;;;2.40;;
13485;SDS011;6815;59.336;17.998;2024-03-06T01:46:51;6.50;;;2.60;;
13485;SDS011;6815;59.336;17.998;2024-03-06T01:49:17;5.37;;;2.57;;
13485;SDS011;6815;59.336;17.998;2024-03-06T01:51:42;4.27;;;2.10;;
13485;SDS011;6815;59.336;17.998;2024-03-06T01:54:13;6.47;;;3.13;;
13485;SDS011;6815;59.336;17.998;2024-03-06T01:56:40;4.37;;;2.63;;
13485;SDS011;6815;59.336;17.998;2024-03-06T01:59:10;7.63;;;3.00;;
13485;SDS011;6815;59.336;17.998;2024-03-06T02:01:40;6.03;;;2.13;;
13485;SDS011;6815;59.336;17.998;2024-03-06T02:04:08;5.47;;;2.73;;
13485;SDS011;6815;59.336;17.998;2024-03-06T02:06:40;4.90;;;2.80;;
13485;SDS011;6815;59.336;17.998;2024-03-06T02:09:06;6.57;;;2.90;;
13485;SDS011;6815;59.336;17.998;2024-03-06T02:11:32;4.60;;;2.67;;
13485;SDS011;6815;59.336;17.998;2024-03-06T02:13:58;4.83;;;2.40;;
13485;SDS011;6815;59.336;17.998;2024-03-06T02:16:24;4.80;;;2.30;;
13485;SDS011;6815;59.336;17.998;2024-03-06T02:18:51;5.17;;;2.60;;
13485;SDS011;6815;59.336;17.998;2024-03-06T02:21:22;3.83;;;2.40;;
13485;SDS011;6815;59.336;17.998;2024-03-06T02:23:48;4.47;;;2.80;;
13485;SDS011;6815;59.336;17.998;2024-03-06T02:26:20;5.20;;;3.20;;
13485;SDS011;6815;59.336;17.998;2024-03-06T02:28:50;6.73;;;2.77;;
13485;SDS011;6815;59.336;17.998;2024-03-06T02:31:17;7.90;;;2.93;;
13485;SDS011;6815;59.336;17.998;2024-03-06T02:33:43;6.80;;;3.30;;
13485;SDS011;6815;59.336;17.998;2024-03-06T02:36:12;6.73;;;3.27;;
13485;SDS011;6815;59.336;17.998;2024-03-06T02:38:39;6.87;;;2.90;;
13485;SDS011;6815;59.336;17.998;2024-03-06T02:41:05;6.33;;;3.47;;
13485;SDS011;6815;59.336;17.998;2024-03-06T02:43:31;3.90;;;2.60;;
13485;SDS011;6815;59.336;17.998;2024-03-06T02:46:00;5.90;;;3.10;;
13485;SDS011;6815;59.336;17.998;2024-03-06T02:48:25;5.67;;;3.60;;
13485;SDS011;6815;59.336;17.998;2024-03-06T02:50:51;6.80;;;3.27;;
13485;SDS011;6815;59.336;17.998;2024-03-06T02:53:16;6.07;;;3.37;;
13485;SDS011;6815;59.336;17.998;2024-03-06T02:55:42;6.10;;;3.43;;
13485;SDS011;6815;59.336;17.998;2024-03-06T02:58:07;6.00;;;3.53;;
13485;SDS011;6815;59.336;17.998;2024-03-06T03:00:33;5.50;;;3.20;;
13485;SDS011;6815;59.336;17.998;2024-03-06T03:02:58;6.93;;;3.50;;
13485;SDS011;6815;59.336;17.998;2024-03-06T03:05:24;5.23;;;3.40;;
13485;SDS011;6815;59.336;17.998;2024-03-06T03:07:49;6.30;;;3.30;;
13485;SDS011;6815;59.336;17.998;2024-03-06T03:10:15;7.23;;;3.63;;
13485;SDS011;6815;59.336;17.998;2024-03-06T03:12:41;8.07;;;3.97;;
13485;SDS011;6815;59.336;17.998;2024-03-06T03:15:07;7.97;;;3.97;;
13485;SDS011;6815;59.336;17.998;2024-03-06T03:17:33;6.07;;;3.53;;
13485;SDS011;6815;59.336;17.998;2024-03-06T03:19:59;10.77;;;4.23;;
13485;SDS011;6815;59.336;17.998;2024-03-06T03:22:25;9.73;;;4.20;;
13485;SDS011;6815;59.336;17.998;2024-03-06T03:24:50;6.20;;;3.50;;
13485;SDS011;6815;59.336;17.998;2024-03-06T03:27:17;6.20;;;3.47;;
13485;SDS011;6815;59.336;17.998;2024-03-06T03:29:43;6.47;;;3.87;;
13485;SDS011;6815;59.336;17.998;2024-03-06T03:32:09;6.77;;;3.53;;
13485;SDS011;6815;59.336;17.998;2024-03-06T03:34:34;6.20;;;3.70;;
13485;SDS011;6815;59.336;17.998;2024-03-06T03:37:00;6.07;;;3.93;;
13485;SDS011;6815;59.336;17.998;2024-03-06T03:39:26;6.47;;;3.47;;
13485;SDS011;6815;59.336;17.998;2024-03-06T03:41:52;8.37;;;3.77;;
13485;SDS011;6815;59.336;17.998;2024-03-06T03:44:18;7.87;;;3.60;;
13485;SDS011;6815;59.336;17.998;2024-03-06T03:46:44;7.77;;;3.70;;
13485;SDS011;6815;59.336;17.998;2024-03-06T03:49:10;6.40;;;3.60;;
13485;SDS011;6815;59.336;17.998;2024-03-06T03:51:36;7.40;;;3.70;;
13485;SDS011;6815;59.336;17.998;2024-03-06T03:54:03;8.00;;;3.67;;
13485;SDS011;6815;59.336;17.998;2024-03-06T03:56:28;8.10;;;4.07;;
13485;SDS011;6815;59.336;17.998;2024-03-06T03:58:55;9.53;;;3.63;;
13485;SDS011;6815;59.336;17.998;2024-03-06T04:01:21;7.67;;;3.23;;
13485;SDS011;6815;59.336;17.998;2024-03-06T04:03:47;7.63;;;3.60;;
13485;SDS011;6815;59.336;17.998;2024-03-06T04:06:13;6.40;;;3.57;;
13485;SDS011;6815;59.336;17.998;2024-03-06T04:08:38;6.80;;;3.83;;
13485;SDS011;6815;59.336;17.998;2024-03-06T04:11:04;8.47;;;4.53;;
13485;SDS011;6815;59.336;17.998;2024-03-06T04:13:29;8.20;;;3.93;;
13485;SDS011;6815;59.336;17.998;2024-03-06T04:15:55;6.97;;;3.53;;
13485;SDS011;6815;59.336;17.998;2024-03-06T04:18:21;5.17;;;3.50;;
13485;SDS011;6815;59.336;17.998;2024-03-06T04:20:46;6.77;;;3.33;;
13485;SDS011;6815;59.336;17.998;2024-03-06T04:23:12;5.87;;;3.47;;
13485;SDS011;6815;59.336;17.998;2024-03-06T04:25:37;7.73;;;3.47;;
13485;SDS011;6815;59.336;17.998;2024-03-06T04:28:04;7.53;;;3.67;;
13485;SDS011;6815;59.336;17.998;2024-03-06T04:30:32;6.70;;;3.20;;
13485;SDS011;6815;59.336;17.998;2024-03-06T04:32:58;8.50;;;3.40;;
13485;SDS011;6815;59.336;17.998;2024-03-06T04:35:24;10.80;;;3.70;;
13485;SDS011;6815;59.336;17.998;2024-03-06T04:37:49;7.33;;;2.97;;
13485;SDS011;6815;59.336;17.998;2024-03-06T04:40:15;7.50;;;3.60;;
13485;SDS011;6815;59.336;17.998;2024-03-06T04:42:44;6.43;;;3.33;;
13485;SDS011;6815;59.336;17.998;2024-03-06T04:45:14;6.63;;;3.80;;
13485;SDS011;6815;59.336;17.998;2024-03-06T04:47:41;9.73;;;3.93;;
13485;SDS011;6815;59.336;17.998;2024-03-06T04:50:10;6.23;;;3.53;;
13485;SDS011;6815;59.336;17.998;2024-03-06T04:52:36;6.80;;;3.37;;
13485;SDS011;6815;59.336;17.998;2024-03-06T04:55:03;6.30;;;3.10;;
13485;SDS011;6815;59.336;17.998;2024-03-06T04:57:29;6.10;;;3.20;;
13485;SDS011;6815;59.336;17.998;2024-03-06T04:59:54;6.57;;;3.17;;
13485;SDS011;6815;59.336;17.998;2024-03-06T05:02:21;6.87;;;3.43;;
13485;SDS011;6815;59.336;17.998;2024-03-06T05:04:47;5.90;;;3.13;;
13485;SDS011;6815;59.336;17.998;2024-03-06T05:07:13;5.30;;;3.10;;
13485;SDS011;6815;59.336;17.998;2024-03-06T05:09:38;7.90;;;3.57;;
13485;SDS011;6815;59.336;17.998;2024-03-06T05:12:06;5.20;;;3.23;;
13485;SDS011;6815;59.336;17.998;2024-03-06T05:14:32;7.90;;;4.37;;
13485;SDS011;6815;59.336;17.998;2024-03-06T05:16:57;5.87;;;3.67;;
13485;SDS011;6815;59.336;17.998;2024-03-06T05:19:23;7.43;;;3.60;;
13485;SDS011;6815;59.336;17.998;2024-03-06T05:21:48;6.30;;;3.20;;
13485;SDS011;6815;59.336;17.998;2024-03-06T05:24:14;8.10;;;3.53;;
13485;SDS011;6815;59.336;17.998;2024-03-06T05:26:39;7.07;;;3.57;;
13485;SDS011;6815;59.336;17.998;2024-03-06T05:29:05;6.97;;;3.00;;
13485;SDS011;6815;59.336;17.998;2024-03-06T05:31:30;5.43;;;3.13;;
13485;SDS011;6815;59.336;17.998;2024-03-06T05:33:57;6.67;;;3.70;;
13485;SDS011;6815;59.336;17.998;2024-03-06T05:36:22;7.03;;;3.67;;
13485;SDS011;6815;59.336;17.998;2024-03-06T05:38:48;5.23;;;3.00;;
13485;SDS011;6815;59.336;17.998;2024-03-06T05:41:14;6.80;;;3.37;;
13485;SDS011;6815;59.336;17.998;2024-03-06T05:43:40;6.13;;;3.37;;
13485;SDS011;6815;59.336;17.998;2024-03-06T05:46:06;5.60;;;3.20;;
13485;SDS011;6815;59.336;17.998;2024-03-06T05:48:31;4.73;;;3.13;;
13485;SDS011;6815;59.336;17.998;2024-03-06T05:50:58;4.93;;;2.83;;
13485;SDS011;6815;59.336;17.998;2024-03-06T05:53:24;6.13;;;3.17;;
13485;SDS011;6815;59.336;17.998;2024-03-06T05:55:49;8.40;;;3.10;;
13485;SDS011;6815;59.336;17.998;2024-03-06T05:58:14;7.93;;;3.97;;
13485;SDS011;6815;59.336;17.998;2024-03-06T06:00:41;4.20;;;2.53;;
13485;SDS011;6815;59.336;17.998;2024-03-06T06:03:07;5.73;;;2.90;;
13485;SDS011;6815;59.336;17.998;2024-03-06T06:05:35;7.60;;;2.90;;
13485;SDS011;6815;59.336;17.998;2024-03-06T06:08:02;6.57;;;3.43;;
13485;SDS011;6815;59.336;17.998;2024-03-06T06:10:28;6.63;;;3.07;;
13485;SDS011;6815;59.336;17.998;2024-03-06T06:12:53;5.13;;;2.73;;
13485;SDS011;6815;59.336;17.998;2024-03-06T06:15:19;5.03;;;2.80;;
13485;SDS011;6815;59.336;17.998;2024-03-06T06:17:45;7.73;;;3.23;;
13485;SDS011;6815;59.336;17.998;2024-03-06T06:20:11;7.07;;;3.63;;
13485;SDS011;6815;59.336;17.998;2024-03-06T06:22:40;5.57;;;3.00;;
13485;SDS011;6815;59.336;17.998;2024-03-06T06:25:07;5.57;;;3.13;;
13485;SDS011;6815;59.336;17.998;2024-03-06T06:27:32;5.10;;;3.20;;
13485;SDS011;6815;59.336;17.998;2024-03-06T06:29:58;5.23;;;2.93;;
13485;SDS011;6815;59.336;17.998;2024-03-06T06:32:24;8.13;;;3.07;;
13485;SDS011;6815;59.336;17.998;2024-03-06T06:34:52;5.03;;;3.07;;
13485;SDS011;6815;59.336;17.998;2024-03-06T06:37:18;6.07;;;2.73;;
13485;SDS011;6815;59.336;17.998;2024-03-06T06:39:45;5.13;;;3.13;;
13485;SDS011;6815;59.336;17.998;2024-03-06T06:42:10;5.03;;;2.70;;
13485;SDS011;6815;59.336;17.998;2024-03-06T06:44:36;7.57;;;3.40;;
13485;SDS011;6815;59.336;17.998;2024-03-06T06:47:03;6.73;;;2.60;;
13485;SDS011;6815;59.336;17.998;2024-03-06T06:49:28;6.90;;;2.70;;
13485;SDS011;6815;59.336;17.998;2024-03-06T06:51:53;6.57;;;3.10;;
13485;SDS011;6815;59.336;17.998;2024-03-06T06:54:19;3.83;;;2.57;;
13485;SDS011;6815;59.336;17.998;2024-03-06T06:56:46;6.40;;;2.73;;
13485;SDS011;6815;59.336;17.998;2024-03-06T06:59:31;7.10;;;3.20;;
13485;SDS011;6815;59.336;17.998;2024-03-06T07:01:56;5.70;;;3.10;;
13485;SDS011;6815;59.336;17.998;2024-03-06T07:04:22;9.37;;;3.17;;
13485;SDS011;6815;59.336;17.998;2024-03-06T07:06:49;5.07;;;2.60;;
13485;SDS011;6815;59.336;17.998;2024-03-06T07:09:17;6.53;;;3.20;;
13485;SDS011;6815;59.336;17.998;2024-03-06T07:11:43;5.13;;;2.73;;
13485;SDS011;6815;59.336;17.998;2024-03-06T07:14:09;5.47;;;3.10;;
13485;SDS011;6815;59.336;17.998;2024-03-06T07:16:41;5.83;;;2.87;;
13485;SDS011;6815;59.336;17.998;2024-03-06T07:19:10;7.27;;;3.20;;
13485;SDS011;6815;59.336;17.998;2024-03-06T07:21:36;4.73;;;2.47;;
13485;SDS011;6815;59.336;17.998;2024-03-06T07:24:02;4.63;;;2.67;;
13485;SDS011;6815;59.336;17.998;2024-03-06T07:26:28;4.47;;;2.57;;
13485;SDS011;6815;59.336;17.998;2024-03-06T07:28:55;6.87;;;2.80;;
13485;SDS011;6815;59.336;17.998;2024-03-06T07:31:22;5.40;;;2.70;;
13485;SDS011;6815;59.336;17.998;2024-03-06T07:33:47;8.93;;;2.53;;
13485;SDS011;6815;59.336;17.998;2024-03-06T07:36:13;7.60;;;2.47;;
13485;SDS011;6815;59.336;17.998;2024-03-06T07:38:38;8.40;;;3.07;;
13485;SDS011;6815;59.336;17.998;2024-03-06T07:41:03;3.57;;;2.43;;
13485;SDS011;6815;59.336;17.998;2024-03-06T07:43:29;5.30;;;2.70;;
13485;SDS011;6815;59.336;17.998;2024-03-06T07:45:54;6.13;;;2.47;;
13485;SDS011;6815;59.336;17.998;2024-03-06T07:48:21;5.23;;;2.70;;
13485;SDS011;6815;59.336;17.998;2024-03-06T07:50:48;8.07;;;2.23;;
13485;SDS011;6815;59.336;17.998;2024-03-06T07:53:13;7.40;;;2.60;;
13485;SDS011;6815;59.336;17.998;2024-03-06T07:55:39;5.17;;;2.63;;
13485;SDS011;6815;59.336;17.998;2024-03-06T07:58:05;5.27;;;2.30;;
13485;SDS011;6815;59.336;17.998;2024-03-06T08:00:33;4.20;;;2.10;;
13485;SDS011;6815;59.336;17.998;2024-03-06T08:02:58;6.77;;;2.80;;
13485;SDS011;6815;59.336;17.998;2024-03-06T08:05:25;5.80;;;2.57;;
13485;SDS011;6815;59.336;17.998;2024-03-06T08:07:51;5.37;;;2.27;;
13485;SDS011;6815;59.336;17.998;2024-03-06T08:10:17;11.67;;;3.00;;
13485;SDS011;6815;59.336;17.998;2024-03-06T08:12:44;7.43;;;2.97;;
13485;SDS011;6815;59.336;17.998;2024-03-06T08:15:14;9.43;;;3.33;;
13485;SDS011;6815;59.336;17.998;2024-03-06T08:17:40;5.90;;;3.00;;
13485;SDS011;6815;59.336;17.998;2024-03-06T08:20:08;6.77;;;2.47;;
13485;SDS011;6815;59.336;17.998;2024-03-06T08:22:35;5.97;;;2.80;;
13485;SDS011;6815;59.336;17.998;2024-03-06T08:25:11;18.20;;;3.00;;
13485;SDS011;6815;59.336;17.998;2024-03-06T08:27:41;6.30;;;3.10;;
13485;SDS011;6815;59.336;17.998;2024-03-06T08:30:07;5.17;;;2.60;;
13485;SDS011;6815;59.336;17.998;2024-03-06T08:32:35;9.30;;;3.13;;
13485;SDS011;6815;59.336;17.998;2024-03-06T08:37:48;4.47;;;2.57;;
13485;SDS011;6815;59.336;17.998;2024-03-06T08:40:15;5.20;;;2.30;;
13485;SDS011;6815;59.336;17.998;2024-03-06T08:42:46;4.00;;;2.00;;
13485;SDS011;6815;59.336;17.998;2024-03-06T08:45:14;3.43;;;1.93;;
13485;SDS011;6815;59.336;17.998;2024-03-06T08:47:41;8.73;;;2.37;;
13485;SDS011;6815;59.336;17.998;2024-03-06T08:50:07;3.77;;;1.90;;
13485;SDS011;6815;59.336;17.998;2024-03-06T08:52:35;8.07;;;2.30;;
13485;SDS011;6815;59.336;17.998;2024-03-06T08:55:01;6.33;;;2.70;;
13485;SDS011;6815;59.336;17.998;2024-03-06T08:57:31;5.73;;;2.20;;
13485;SDS011;6815;59.336;17.998;2024-03-06T08:59:57;9.90;;;2.27;;
13485;SDS011;6815;59.336;17.998;2024-03-06T09:02:23;7.67;;;2.43;;
13485;SDS011;6815;59.336;17.998;2024-03-06T09:04:48;4.17;;;1.93;;
13485;SDS011;6815;59.336;17.998;2024-03-06T09:07:14;5.33;;;1.80;;
13485;SDS011;6815;59.336;17.998;2024-03-06T09:09:40;4.90;;;1.87;;
13485;SDS011;6815;59.336;17.998;2024-03-06T09:12:06;5.33;;;1.87;;
13485;SDS011;6815;59.336;17.998;2024-03-06T09:14:34;4.23;;;1.70;;
13485;SDS011;6815;59.336;17.998;2024-03-06T09:17:02;5.73;;;1.80;;
13485;SDS011;6815;59.336;17.998;2024-03-06T09:19:30;8.60;;;2.13;;
13485;SDS011;6815;59.336;17.998;2024-03-06T09:21:55;7.50;;;2.10;;
13485;SDS011;6815;59.336;17.998;2024-03-06T09:24:22;10.33;;;2.30;;
13485;SDS011;6815;59.336;17.998;2024-03-06T09:26:51;11.30;;;2.43;;
13485;SDS011;6815;59.336;17.998;2024-03-06T09:29:17;7.23;;;2.67;;
13485;SDS011;6815;59.336;17.998;2024-03-06T09:31:44;4.50;;;2.10;;
13485;SDS011;6815;59.336;17.998;2024-03-06T09:34:10;3.03;;;1.63;;
13485;SDS011;6815;59.336;17.998;2024-03-06T09:36:47;3.00;;;1.80;;
13485;SDS011;6815;59.336;17.998;2024-03-06T09:39:14;6.27;;;2.40;;
13485;SDS011;6815;59.336;17.998;2024-03-06T09:41:42;4.37;;;2.37;;
13485;SDS011;6815;59.336;17.998;2024-03-06T09:44:09;3.90;;;2.20;;
13485;SDS011;6815;59.336;17.998;2024-03-06T09:46:36;6.40;;;2.43;;
13485;SDS011;6815;59.336;17.998;2024-03-06T09:49:03;6.87;;;2.30;;
13485;SDS011;6815;59.336;17.998;2024-03-06T09:51:29;5.33;;;2.10;;
13485;SDS011;6815;59.336;17.998;2024-03-06T09:53:55;5.13;;;2.13;;
13485;SDS011;6815;59.336;17.998;2024-03-06T09:56:21;4.70;;;2.20;;
13485;SDS011;6815;59.336;17.998;2024-03-06T09:58:47;6.77;;;2.10;;
13485;SDS011;6815;59.336;17.998;2024-03-06T10:01:12;9.20;;;2.50;;
13485;SDS011;6815;59.336;17.998;2024-03-06T10:03:39;5.93;;;2.03;;
13485;SDS011;6815;59.336;17.998;2024-03-06T10:06:08;10.10;;;2.83;;
13485;SDS011;6815;59.336;17.998;2024-03-06T10:08:34;6.03;;;2.20;;
13485;SDS011;6815;59.336;17.998;2024-03-06T10:11:02;4.10;;;2.00;;
13485;SDS011;6815;59.336;17.998;2024-03-06T10:13:28;4.73;;;2.03;;
13485;SDS011;6815;59.336;17.998;2024-03-06T10:15:57;4.23;;;2.13;;
13485;SDS011;6815;59.336;17.998;2024-03-06T10:18:26;5.30;;;2.13;;
13485;SDS011;6815;59.336;17.998;2024-03-06T10:20:53;6.77;;;2.23;;
13485;SDS011;6815;59.336;17.998;2024-03-06T10:23:18;6.83;;;2.03;;
13485;SDS011;6815;59.336;17.998;2024-03-06T10:25:44;7.47;;;2.13;;
13485;SDS011;6815;59.336;17.998;2024-03-06T10:28:12;5.90;;;2.20;;
13485;SDS011;6815;59.336;17.998;2024-03-06T10:30:38;4.30;;;2.00;;
13485;SDS011;6815;59.336;17.998;2024-03-06T10:33:08;3.47;;;1.80;;
13485;SDS011;6815;59.336;17.998;2024-03-06T10:35:34;4.93;;;2.27;;
13485;SDS011;6815;59.336;17.998;2024-03-06T10:38:04;9.53;;;2.90;;
13485;SDS011;6815;59.336;17.998;2024-03-06T10:40:31;4.40;;;2.43;;
13485;SDS011;6815;59.336;17.998;2024-03-06T10:42:59;8.57;;;2.07;;
13485;SDS011;6815;59.336;17.998;2024-03-06T10:45:32;4.53;;;1.87;;
13485;SDS011;6815;59.336;17.998;2024-03-06T10:48:18;7.70;;;2.30;;
13485;SDS011;6815;59.336;17.998;2024-03-06T10:50:45;7.73;;;2.67;;
13485;SDS011;6815;59.336;17.998;2024-03-06T10:53:12;6.73;;;2.10;;
13485;SDS011;6815;59.336;17.998;2024-03-06T10:55:39;5.40;;;2.13;;
13485;SDS011;6815;59.336;17.998;2024-03-06T10:58:09;5.23;;;1.97;;
13485;SDS011;6815;59.336;17.998;2024-03-06T11:00:39;5.93;;;1.90;;
13485;SDS011;6815;59.336;17.998;2024-03-06T11:03:06;6.37;;;2.23;;
13485;SDS011;6815;59.336;17.998;2024-03-06T11:05:38;5.57;;;2.03;;
13485;SDS011;6815;59.336;17.998;2024-03-06T11:08:11;5.27;;;2.20;;
13485;SDS011;6815;59.336;17.998;2024-03-06T11:10:39;4.83;;;2.13;;
13485;SDS011;6815;59.336;17.998;2024-03-06T11:13:23;6.17;;;2.37;;
13485;SDS011;6815;59.336;17.998;2024-03-06T11:15:53;5.10;;;2.10;;
13485;SDS011;6815;59.336;17.998;2024-03-06T11:23:28;6.83;;;2.00;;
13485;SDS011;6815;59.336;17.998;2024-03-06T11:26:07;4.83;;;2.10;;
13485;SDS011;6815;59.336;17.998;2024-03-06T11:28:38;5.07;;;2.40;;
13485;SDS011;6815;59.336;17.998;2024-03-06T11:31:06;6.90;;;2.90;;
13485;SDS011;6815;59.336;17.998;2024-03-06T11:33:40;5.47;;;2.40;;
13485;SDS011;6815;59.336;17.998;2024-03-06T11:39:04;7.77;;;2.67;;
13485;SDS011;6815;59.336;17.998;2024-03-06T11:44:16;7.07;;;2.00;;
13485;SDS011;6815;59.336;17.998;2024-03-06T11:46:47;6.20;;;2.30;;
13485;SDS011;6815;59.336;17.998;2024-03-06T11:49:33;10.47;;;2.70;;
13485;SDS011;6815;59.336;17.998;2024-03-06T11:52:02;7.07;;;2.63;;
13485;SDS011;6815;59.336;17.998;2024-03-06T11:54:30;7.73;;;2.77;;
13485;SDS011;6815;59.336;17.998;2024-03-06T11:56:58;7.80;;;2.27;;
13485;SDS011;6815;59.336;17.998;2024-03-06T11:59:34;6.23;;;2.43;;
13485;SDS011;6815;59.336;17.998;2024-03-06T12:02:04;7.10;;;2.07;;
13485;SDS011;6815;59.336;17.998;2024-03-06T12:04:31;5.30;;;1.63;;
13485;SDS011;6815;59.336;17.998;2024-03-06T12:06:59;2.83;;;1.43;;
13485;SDS011;6815;59.336;17.998;2024-03-06T12:09:25;5.83;;;1.80;;
13485;SDS011;6815;59.336;17.998;2024-03-06T12:11:52;6.40;;;2.60;;
13485;SDS011;6815;59.336;17.998;2024-03-06T12:14:18;6.67;;;1.97;;
13485;SDS011;6815;59.336;17.998;2024-03-06T12:16:58;8.27;;;2.33;;
13485;SDS011;6815;59.336;17.998;2024-03-06T12:19:26;4.90;;;2.50;;
13485;SDS011;6815;59.336;17.998;2024-03-06T12:21:54;8.77;;;2.47;;
13485;SDS011;6815;59.336;17.998;2024-03-06T12:24:20;4.93;;;2.00;;
13485;SDS011;6815;59.336;17.998;2024-03-06T12:26:45;6.47;;;2.23;;
13485;SDS011;6815;59.336;17.998;2024-03-06T12:29:16;5.63;;;2.20;;
13485;SDS011;6815;59.336;17.998;2024-03-06T12:31:46;4.73;;;1.70;;
13485;SDS011;6815;59.336;17.998;2024-03-06T12:34:15;3.43;;;1.97;;
13485;SDS011;6815;59.336;17.998;2024-03-06T12:36:44;6.20;;;2.00;;
13485;SDS011;6815;59.336;17.998;2024-03-06T12:39:15;4.20;;;1.67;;
13485;SDS011;6815;59.336;17.998;2024-03-06T12:41:46;10.40;;;2.50;;
13485;SDS011;6815;59.336;17.998;2024-03-06T12:44:12;5.83;;;2.30;;
13485;SDS011;6815;59.336;17.998;2024-03-06T12:46:38;6.80;;;2.03;;
13485;SDS011;6815;59.336;17.998;2024-03-06T12:49:04;7.03;;;2.47;;
13485;SDS011;6815;59.336;17.998;2024-03-06T12:51:29;5.53;;;2.20;;
13485;SDS011;6815;59.336;17.998;2024-03-06T12:53:55;6.43;;;2.50;;
13485;SDS011;6815;59.336;17.998;2024-03-06T12:56:20;5.33;;;2.17;;
13485;SDS011;6815;59.336;17.998;2024-03-06T12:58:46;4.27;;;2.13;;
13485;SDS011;6815;59.336;17.998;2024-03-06T13:01:11;4.13;;;1.73;;
13485;SDS011;6815;59.336;17.998;2024-03-06T13:03:37;5.03;;;2.10;;
13485;SDS011;6815;59.336;17.998;2024-03-06T13:06:03;3.57;;;1.97;;
13485;SDS011;6815;59.336;17.998;2024-03-06T13:08:29;6.90;;;2.27;;
13485;SDS011;6815;59.336;17.998;2024-03-06T13:10:55;8.13;;;2.53;;
13485;SDS011;6815;59.336;17.998;2024-03-06T13:13:22;6.63;;;1.93;;
13485;SDS011;6815;59.336;17.998;2024-03-06T13:15:55;5.63;;;2.57;;
13485;SDS011;6815;59.336;17.998;2024-03-06T13:18:23;5.43;;;2.43;;
13485;SDS011;6815;59.336;17.998;2024-03-06T13:20:48;5.93;;;2.23;;
13485;SDS011;6815;59.336;17.998;2024-03-06T13:23:15;9.63;;;2.50;;
13485;SDS011;6815;59.336;17.998;2024-03-06T13:25:41;7.00;;;2.37;;
13485;SDS011;6815;59.336;17.998;2024-03-06T13:28:07;7.97;;;2.17;;
13485;SDS011;6815;59.336;17.998;2024-03-06T13:30:34;6.87;;;2.20;;
13485;SDS011;6815;59.336;17.998;2024-03-06T13:33:06;4.57;;;2.40;;
13485;SDS011;6815;59.336;17.998;2024-03-06T13:35:32;4.80;;;1.73;;
13485;SDS011;6815;59.336;17.998;2024-03-06T13:37:58;4.90;;;2.20;;
13485;SDS011;6815;59.336;17.998;2024-03-06T13:40:23;4.33;;;1.97;;
13485;SDS011;6815;59.336;17.998;2024-03-06T13:42:50;6.30;;;1.97;;
13485;SDS011;6815;59.336;17.998;2024-03-06T13:45:17;7.20;;;2.30;;
13485;SDS011;6815;59.336;17.998;2024-03-06T13:47:44;5.13;;;2.03;;
13485;SDS011;6815;59.336;17.998;2024-03-06T13:50:15;6.70;;;2.03;;
13485;SDS011;6815;59.336;17.998;2024-03-06T13:52:44;5.83;;;2.10;;
13485;SDS011;6815;59.336;17.998;2024-03-06T13:55:10;4.43;;;2.40;;
13485;SDS011;6815;59.336;17.998;2024-03-06T13:57:36;4.83;;;1.90;;
13485;SDS011;6815;59.336;17.998;2024-03-06T14:00:07;9.10;;;2.07;;
13485;SDS011;6815;59.336;17.998;2024-03-06T14:02:45;4.93;;;2.07;;
13485;SDS011;6815;59.336;17.998;2024-03-06T14:05:12;5.77;;;2.00;;
13485;SDS011;6815;59.336;17.998;2024-03-06T14:07:39;5.10;;;1.87;;
13485;SDS011;6815;59.336;17.998;2024-03-06T14:10:05;4.60;;;2.00;;
13485;SDS011;6815;59.336;17.998;2024-03-06T14:12:34;3.93;;;2.20;;
13485;SDS011;6815;59.336;17.998;2024-03-06T14:15:00;6.37;;;2.00;;
13485;SDS011;6815;59.336;17.998;2024-03-06T14:17:26;5.40;;;2.10;;
13485;SDS011;6815;59.336;17.998;2024-03-06T14:19:52;3.20;;;2.20;;
13485;SDS011;6815;59.336;17.998;2024-03-06T14:22:18;5.13;;;2.00;;
13485;SDS011;6815;59.336;17.998;2024-03-06T14:24:44;6.50;;;2.20;;
13485;SDS011;6815;59.336;17.998;2024-03-06T14:27:12;7.30;;;2.50;;
13485;SDS011;6815;59.336;17.998;2024-03-06T14:29:37;5.50;;;2.20;;
13485;SDS011;6815;59.336;17.998;2024-03-06T14:32:03;7.47;;;2.30;;
13485;SDS011;6815;59.336;17.998;2024-03-06T14:34:30;10.63;;;2.40;;
13485;SDS011;6815;59.336;17.998;2024-03-06T14:36:56;5.60;;;2.07;;
13485;SDS011;6815;59.336;17.998;2024-03-06T14:39:22;5.07;;;2.40;;
13485;SDS011;6815;59.336;17.998;2024-03-06T14:41:48;5.87;;;1.90;;
13485;SDS011;6815;59.336;17.998;2024-03-06T14:44:15;6.67;;;2.50;;
13485;SDS011;6815;59.336;17.998;2024-03-06T14:46:41;5.17;;;2.13;;
13485;SDS011;6815;59.336;17.998;2024-03-06T14:49:07;4.60;;;2.10;;
13485;SDS011;6815;59.336;17.998;2024-03-06T14:51:33;4.37;;;1.77;;
13485;SDS011;6815;59.336;17.998;2024-03-06T14:54:00;6.27;;;2.13;;
13485;SDS011;6815;59.336;17.998;2024-03-06T14:56:29;5.97;;;1.87;;
13485;SDS011;6815;59.336;17.998;2024-03-06T14:58:56;6.57;;;2.03;;
13485;SDS011;6815;59.336;17.998;2024-03-06T15:01:25;4.93;;;1.93;;